EST,Max TemperatureF,Mean TemperatureF,Min TemperatureF,Max Dew PointF,MeanDew PointF,Min DewpointF,Max Humidity, Mean Humidity, Min Humidity, Max Sea Level PressureIn, Mean Sea Level PressureIn, Min Sea Level PressureIn, Max VisibilityMiles, Mean VisibilityMiles, Min VisibilityMiles, Max Wind SpeedMPH, Mean Wind SpeedMPH, Max Gust SpeedMPH,PrecipitationIn, CloudCover, Events, WindDirDegrees
2013-1-1,24,20,16,15,11,9,77,66,53,30.15,30.08,30.03,10,10,10,15,7,20,0.00,8,Snow,284
2013-1-2,26,20,15,24,18,11,92,81,71,30.14,30.10,30.05,10,9,4,12,7,17,0.00,8,Snow,242
2013-1-3,29,24,19,24,20,15,93,82,76,30.13,30.07,30.01,10,8,3,17,10,22,0.00,8,Snow,231
2013-1-4,34,30,26,25,23,20,88,78,67,30.14,30.03,29.95,10,10,10,23,14,32,0.00,4,,245
2013-1-5,36,26,15,32,25,14,100,90,68,30.22,30.10,29.94,10,6,2,13,5,17,0.00,3,Snow,201
2013-1-6,34,32,28,33,29,23,98,87,71,30.25,29.97,29.84,10,7,2,13,9,18,0.00,8,Rain-Snow,264
2013-1-7,36,32,27,27,23,19,86,74,50,30.29,30.19,30.07,10,10,7,21,7,28,0.00,2,,202
2013-1-8,37,32,26,30,26,23,89,81,72,30.19,30.13,30.08,10,8,5,12,7,16,0.00,1,,190
2013-1-9,45,36,23,33,28,21,91,72,48,30.40,30.12,29.93,10,10,5,26,11,38,0.00,2,Snow,233
2013-1-10,41,30,20,33,27,20,98,83,59,30.54,30.41,30.12,10,9,3,9,4,,0.00,1,Rain-Snow,120
2013-1-11,50,42,34,50,42,33,99,96,92,30.10,29.83,29.70,10,4,1,14,7,,0.00,7,Rain-Snow,164
2013-1-12,55,47,39,48,39,28,97,77,45,29.92,29.83,29.74,10,9,7,16,8,22,0.00,1,Rain,215
2013-1-13,38,32,25,36,32,21,100,95,83,30.04,29.90,29.81,10,6,1,16,7,25,0.00,8,Rain-Snow,300
2013-1-14,25,20,14,20,15,12,94,79,63,30.40,30.31,30.05,10,10,2,21,11,28,0.00,4,Snow,267
2013-1-15,28,20,12,20,16,11,96,86,70,30.39,30.31,30.13,10,10,5,8,2,,0.00,1,,186
2013-1-16,35,25,15,30,21,14,93,81,54,30.11,29.89,29.72,10,10,5,21,8,29,0.00,4,Snow,219
2013-1-17,32,24,16,28,18,8,87,73,61,30.31,30.16,29.94,10,10,3,17,8,25,0.00,8,Snow,301
2013-1-18,35,22,10,25,17,8,92,75,56,30.39,30.17,29.85,10,10,7,23,7,30,0.00,3,Snow,202
2013-1-19,42,38,33,36,31,24,88,73,63,29.86,29.73,29.50,10,10,2,25,11,32,0.00,5,Rain,211
2013-1-20,36,24,13,27,9,4,84,68,56,30.17,30.02,29.51,10,10,2,33,18,46,0.00,7,Snow,269
2013-1-21,15,8,1,11,2,-8,87,70,52,30.11,30.02,29.95,10,9,2,20,9,29,0.00,6,Snow,281
2013-1-22,9,4,-1,0,-5,-9,84,68,51,30.26,30.20,30.11,10,10,2,16,10,23,0.00,3,Snow,277
2013-1-23,17,9,1,13,6,-2,91,81,71,30.26,30.14,30.04,10,8,2,12,5,16,0.00,7,Snow,241
2013-1-24,16,9,2,8,3,-2,89,72,45,30.59,30.46,30.15,10,10,10,9,5,,0.00,0,,329
2013-1-25,21,16,12,18,12,2,96,83,63,30.47,30.14,29.97,10,6,1,10,4,,0.00,8,Snow,155
2013-1-26,27,20,12,19,15,10,94,80,57,30.40,30.24,30.02,10,10,7,10,4,,0.00,5,Snow,282
2013-1-27,28,21,14,28,19,11,96,82,65,30.41,30.32,30.08,10,8,1,14,5,18,0.00,6,Snow,149
2013-1-28,40,34,29,40,34,28,100,97,89,30.06,29.91,29.81,10,5,1,10,6,17,0.00,8,Rain-Snow,203
2013-1-29,54,43,32,53,43,32,100,98,91,29.98,29.68,29.38,10,3,0,13,5,18,0.00,8,Fog-Rain-Snow,149
2013-1-30,52,40,27,52,39,24,100,96,83,29.38,29.23,29.08,10,5,1,20,7,32,0.00,8,Rain-Snow,304
2013-1-31,27,21,15,22,15,9,87,77,64,29.87,29.61,29.28,10,8,1,26,17,41,0.00,8,Snow,276